Time;durP1;ratioP1;P1;durP2;ratioP2;P2;SDS_P1;SDS_P2;PMS_P1;PMS_P2;Temp;Humidity;BMP_temperature;BMP_pressure;BME280_temperature;BME280_humidity;BME280_pressure;Samples;Min_cycle;Max_cycle;Signal;HPM_P1;HPM_P2
2021/04/26 00:00:31;;;;;;;7.93;2.38;;;4.50;88.00;;;;;;5134967;27;20035;-71
2021/04/26 00:02:59;;;;;;;6.30;2.95;;;4.50;88.00;;;;;;5135015;27;20377;-71
2021/04/26 00:05:27;;;;;;;5.43;2.40;;;4.50;88.00;;;;;;5134592;27;20115;-71
2021/04/26 00:07:54;;;;;;;8.52;2.30;;;4.30;88.00;;;;;;5134542;27;20043;-71
2021/04/26 00:10:20;;;;;;;9.38;2.75;;;4.40;88.10;;;;;;5135190;27;20383;-71
2021/04/26 00:12:47;;;;;;;5.88;2.60;;;4.30;87.80;;;;;;5134628;27;20093;-71
2021/04/26 00:15:21;;;;;;;6.82;2.78;;;4.30;87.40;;;;;;5134909;27;20043;-71
2021/04/26 00:17:48;;;;;;;6.75;2.58;;;4.20;87.40;;;;;;5134443;27;20067;-71
2021/04/26 00:20:16;;;;;;;7.05;2.60;;;4.20;87.50;;;;;;5134961;27;20084;-71
2021/04/26 00:22:42;;;;;;;4.55;2.28;;;4.20;88.00;;;;;;5135068;27;20039;-71
2021/04/26 00:25:08;;;;;;;7.00;2.42;;;4.20;88.40;;;;;;5134505;27;20095;-71
2021/04/26 00:27:35;;;;;;;7.10;2.75;;;4.10;88.50;;;;;;5134366;27;20467;-71
2021/04/26 00:30:03;;;;;;;5.97;2.22;;;4.10;88.70;;;;;;5134587;27;20039;-71
2021/04/26 00:32:32;;;;;;;3.40;2.15;;;4.10;89.00;;;;;;5135102;27;20043;-71
2021/04/26 00:34:57;;;;;;;3.95;2.20;;;4.10;89.00;;;;;;5133325;27;20036;-71
2021/04/26 00:37:23;;;;;;;3.45;2.20;;;4.10;89.20;;;;;;5134439;27;20453;-71
2021/04/26 00:39:49;;;;;;;4.30;2.05;;;4.00;89.40;;;;;;5134597;27;20166;-71
2021/04/26 00:42:14;;;;;;;5.10;2.30;;;4.00;89.50;;;;;;5134260;27;20043;-71
2021/04/26 00:44:40;;;;;;;5.70;2.28;;;4.00;89.70;;;;;;5134083;27;20066;-71
2021/04/26 00:47:06;;;;;;;8.68;2.85;;;4.00;89.70;;;;;;5134529;27;20471;-71
2021/04/26 00:49:32;;;;;;;5.03;2.35;;;3.90;89.80;;;;;;5138482;27;20031;-71
2021/04/26 00:51:59;;;;;;;4.85;2.50;;;3.90;90.00;;;;;;5138909;27;20058;-71
2021/04/26 00:54:25;;;;;;;4.90;2.08;;;3.90;90.00;;;;;;5138151;27;20046;-71
2021/04/26 00:56:51;;;;;;;5.28;2.85;;;3.90;90.00;;;;;;5138492;27;20039;-71
2021/04/26 00:59:17;;;;;;;5.05;2.53;;;3.90;90.00;;;;;;5138782;27;20039;-71
2021/04/26 01:01:42;;;;;;;5.20;2.83;;;3.90;90.00;;;;;;5138447;27;20035;-71
2021/04/26 01:04:08;;;;;;;8.18;2.72;;;3.80;90.00;;;;;;5138094;27;20042;-71
2021/04/26 01:06:39;;;;;;;7.43;2.05;;;3.80;90.00;;;;;;5138174;27;20039;-71
2021/04/26 01:09:05;;;;;;;5.30;2.53;;;3.80;90.00;;;;;;5138524;27;20046;-71
2021/04/26 01:12:10;;;;;;;5.35;2.30;;;3.80;90.00;;;;;;5138131;27;20383;-71
2021/04/26 01:14:43;;;;;;;4.38;2.25;;;3.80;90.00;;;;;;5121972;27;20126;-71
2021/04/26 01:17:22;;;;;;;7.53;2.53;;;3.70;90.00;;;;;;5138160;27;20062;-71
2021/04/26 01:20:09;;;;;;;4.65;2.20;;;3.70;90.00;;;;;;5138520;27;20277;-71
2021/04/26 01:23:23;;;;;;;6.60;2.60;;;3.70;90.00;;;;;;5138129;27;20037;-71
2021/04/26 01:25:50;;;;;;;4.63;2.67;;;3.60;90.00;;;;;;5137520;27;20031;-71
2021/04/26 01:28:27;;;;;;;4.38;2.10;;;3.50;90.00;;;;;;5137553;27;20043;-71
2021/04/26 01:30:59;;;;;;;7.35;2.45;;;3.50;90.00;;;;;;5138272;27;20039;-71
2021/04/26 01:33:28;;;;;;;7.43;2.30;;;3.50;90.20;;;;;;5138390;27;20455;-71
2021/04/26 01:35:59;;;;;;;5.45;2.20;;;3.50;90.10;;;;;;5137476;27;20114;-71
2021/04/26 01:38:34;;;;;;;6.53;2.38;;;3.50;90.20;;;;;;5137466;27;20130;-71
2021/04/26 01:41:01;;;;;;;2.95;1.83;;;3.40;90.20;;;;;;5137498;27;20031;-71
2021/04/26 01:43:28;;;;;;;4.22;1.85;;;3.40;90.30;;;;;;5138045;27;20036;-71
2021/04/26 01:45:56;;;;;;;6.10;2.13;;;3.40;90.30;;;;;;5136216;27;20062;-71
2021/04/26 01:48:25;;;;;;;7.63;2.75;;;3.40;90.40;;;;;;5137890;27;20041;-71
2021/04/26 01:50:51;;;;;;;7.63;2.90;;;3.40;90.50;;;;;;5137423;27;20131;-71
2021/04/26 01:53:18;;;;;;;4.35;2.40;;;3.40;90.40;;;;;;5137209;27;20479;-71
2021/04/26 01:55:46;;;;;;;4.22;2.13;;;3.40;90.40;;;;;;5137015;27;20051;-71
2021/04/26 01:58:13;;;;;;;6.82;2.10;;;3.40;90.40;;;;;;5136910;27;20426;-71
2021/04/26 02:00:39;;;;;;;5.78;2.08;;;3.40;90.50;;;;;;5136743;27;20080;-71
2021/04/26 02:03:07;;;;;;;6.57;2.40;;;3.40;90.60;;;;;;5137153;27;20031;-71
2021/04/26 02:05:34;;;;;;;4.78;2.60;;;3.40;90.50;;;;;;5136999;27;20034;-71
2021/04/26 02:08:01;;;;;;;4.03;2.10;;;3.40;90.50;;;;;;5137080;27;20080;-71
2021/04/26 02:10:28;;;;;;;6.53;2.35;;;3.40;90.40;;;;;;5137351;27;20050;-71
2021/04/26 02:12:56;;;;;;;7.30;2.95;;;3.40;90.60;;;;;;5136866;27;20038;-71
2021/04/26 02:15:23;;;;;;;6.88;2.20;;;3.40;90.70;;;;;;5136603;27;20042;-71
2021/04/26 02:17:50;;;;;;;7.18;1.95;;;3.40;90.60;;;;;;5136791;27;20043;-71
2021/04/26 02:20:18;;;;;;;6.47;2.95;;;3.30;90.50;;;;;;5136825;27;20041;-71
2021/04/26 02:22:48;;;;;;;6.43;1.90;;;3.40;90.60;;;;;;5136658;27;20035;-71
2021/04/26 02:25:14;;;;;;;6.55;2.50;;;3.30;90.50;;;;;;5137436;27;20064;-71
2021/04/26 02:27:40;;;;;;;2.72;1.92;;;3.20;90.60;;;;;;5136448;27;20035;-71
2021/04/26 02:30:07;;;;;;;5.20;2.22;;;3.20;90.50;;;;;;5136469;27;20069;-71
2021/04/26 02:32:58;;;;;;;3.53;2.40;;;3.20;90.50;;;;;;5137148;27;20043;-71
2021/04/26 02:35:38;;;;;;;6.43;1.75;;;3.20;90.70;;;;;;5135183;27;20039;-71
2021/04/26 02:38:07;;;;;;;7.22;2.20;;;3.20;90.70;;;;;;5136291;27;20050;-71
2021/04/26 02:40:39;;;;;;;5.72;2.30;;;3.20;90.90;;;;;;5136329;27;20035;-71
2021/04/26 02:43:06;;;;;;;4.88;2.17;;;3.20;90.90;;;;;;5136894;27;20035;-71
2021/04/26 02:45:35;;;;;;;4.30;1.95;;;3.20;91.00;;;;;;5136096;27;20499;-71
2021/04/26 02:48:01;;;;;;;5.05;2.03;;;3.20;90.90;;;;;;5136908;27;20440;-71
2021/04/26 02:50:29;;;;;;;3.55;2.40;;;3.20;90.90;;;;;;5136772;27;20078;-71
2021/04/26 02:52:55;;;;;;;5.47;2.38;;;3.20;90.80;;;;;;5135179;27;20063;-71
2021/04/26 02:55:22;;;;;;;4.63;2.50;;;3.20;90.80;;;;;;5135986;27;20038;-71
2021/04/26 02:57:49;;;;;;;5.78;2.38;;;3.10;90.70;;;;;;5135906;27;20035;-71
2021/04/26 03:00:18;;;;;;;3.13;2.00;;;3.10;90.90;;;;;;5136305;27;20440;-71
2021/04/26 03:02:45;;;;;;;3.60;2.30;;;3.00;91.00;;;;;;5136352;27;20119;-71
2021/04/26 03:05:13;;;;;;;5.28;2.10;;;3.00;91.00;;;;;;5135595;27;20076;-71
2021/04/26 03:07:41;;;;;;;4.45;2.10;;;3.00;91.10;;;;;;5135791;27;20122;-71
2021/04/26 03:10:10;;;;;;;6.30;2.30;;;3.00;91.10;;;;;;5135466;27;20067;-71
2021/04/26 03:12:38;;;;;;;4.22;2.80;;;3.00;91.10;;;;;;5135605;27;20046;-71
2021/04/26 03:15:13;;;;;;;3.05;2.00;;;3.00;91.10;;;;;;5135871;27;20034;-71
2021/04/26 03:17:41;;;;;;;6.20;2.45;;;3.00;91.10;;;;;;5136197;27;20474;-71
2021/04/26 03:20:10;;;;;;;7.15;2.83;;;3.00;91.10;;;;;;5135501;27;20031;-71
2021/04/26 03:22:38;;;;;;;4.30;2.33;;;3.00;91.10;;;;;;5135501;27;20031;-71
2021/04/26 03:25:05;;;;;;;6.53;2.30;;;3.00;91.30;;;;;;5135330;27;20440;-71
2021/04/26 03:27:31;;;;;;;4.47;2.20;;;3.00;91.10;;;;;;5135672;27;20079;-71
2021/04/26 03:29:58;;;;;;;4.15;2.50;;;2.90;91.00;;;;;;5135391;27;20050;-71
2021/04/26 03:32:25;;;;;;;5.00;2.65;;;3.00;91.10;;;;;;5135910;27;20038;-71
2021/04/26 03:34:53;;;;;;;4.38;2.13;;;3.00;91.20;;;;;;5135135;27;20042;-71
2021/04/26 03:37:19;;;;;;;5.22;2.30;;;3.00;91.20;;;;;;5135607;27;20031;-71
2021/04/26 03:39:47;;;;;;;9.55;2.95;;;3.00;91.30;;;;;;5133870;27;20039;-71
2021/04/26 03:42:20;;;;;;;7.10;2.53;;;2.90;91.40;;;;;;5135034;27;20073;-71
2021/04/26 03:44:48;;;;;;;4.35;1.98;;;3.00;91.50;;;;;;5135449;27;20035;-71
2021/04/26 03:47:14;;;;;;;6.88;2.38;;;2.90;91.40;;;;;;5133845;27;20063;-71
2021/04/26 03:49:40;;;;;;;8.32;2.35;;;2.90;91.30;;;;;;5135077;27;20067;-71
2021/04/26 03:52:07;;;;;;;5.10;2.10;;;2.90;91.30;;;;;;5135261;27;20092;-71
2021/04/26 03:54:34;;;;;;;3.85;2.30;;;2.90;91.40;;;;;;5134713;27;20109;-71
2021/04/26 03:57:00;;;;;;;7.18;2.65;;;2.80;91.40;;;;;;5134733;27;20060;-71
2021/04/26 03:59:25;;;;;;;3.42;2.10;;;2.80;91.40;;;;;;5135453;27;20035;-71
2021/04/26 04:01:52;;;;;;;9.10;2.83;;;2.80;91.50;;;;;;5134771;27;20035;-71
2021/04/26 04:04:18;;;;;;;5.05;2.55;;;2.80;91.30;;;;;;5134973;27;20031;-71
2021/04/26 04:06:43;;;;;;;3.22;2.42;;;2.90;91.40;;;;;;5134698;27;20042;-71
2021/04/26 04:09:09;;;;;;;4.80;3.05;;;2.90;91.60;;;;;;5134983;27;20035;-71
2021/04/26 04:11:35;;;;;;;5.03;2.25;;;2.90;91.60;;;;;;5135172;27;20047;-71
2021/04/26 04:14:03;;;;;;;9.15;2.38;;;2.90;91.60;;;;;;5135254;27;20408;-71
2021/04/26 04:16:29;;;;;;;6.97;2.70;;;2.90;91.70;;;;;;5134426;27;20060;-71
2021/04/26 04:18:55;;;;;;;4.47;2.70;;;2.90;92.00;;;;;;5133741;27;20047;-71
2021/04/26 04:21:22;;;;;;;7.05;2.58;;;2.90;91.60;;;;;;5134220;27;20066;-71
2021/04/26 04:23:48;;;;;;;5.50;2.20;;;2.90;91.60;;;;;;5133916;27;20379;-71
2021/04/26 04:26:14;;;;;;;6.40;2.35;;;2.90;91.90;;;;;;5134169;27;20118;-71
2021/04/26 04:28:40;;;;;;;6.80;2.67;;;2.90;91.60;;;;;;5134955;27;20042;-71
2021/04/26 04:31:06;;;;;;;6.10;2.85;;;2.90;91.60;;;;;;5134329;27;20045;-71
2021/04/26 04:33:33;;;;;;;11.45;2.83;;;3.00;91.60;;;;;;5134562;27;20445;-71
2021/04/26 04:36:00;;;;;;;4.25;2.33;;;3.00;91.70;;;;;;5134132;27;20398;-71
2021/04/26 04:38:26;;;;;;;5.07;2.08;;;3.00;91.80;;;;;;5134770;27;20050;-71
2021/04/26 04:40:55;;;;;;;4.97;2.33;;;3.00;91.90;;;;;;5134190;27;20043;-71
2021/04/26 04:43:21;;;;;;;5.55;2.50;;;3.10;91.80;;;;;;5134116;27;20066;-70
2021/04/26 04:45:48;;;;;;;5.80;2.72;;;3.10;91.70;;;;;;5134099;27;20062;-71
2021/04/26 04:48:14;;;;;;;6.32;2.58;;;3.10;91.80;;;;;;5134115;27;20091;-71
2021/04/26 04:50:39;;;;;;;5.65;2.28;;;3.10;91.80;;;;;;5134759;28;20058;-71
2021/04/26 04:53:05;;;;;;;4.68;3.25;;;3.10;91.80;;;;;;5134067;27;20035;-71
2021/04/26 04:55:31;;;;;;;4.25;2.45;;;3.20;91.90;;;;;;5133959;27;20115;-71
2021/04/26 04:57:57;;;;;;;3.30;2.40;;;3.40;91.80;;;;;;5133973;27;20153;-70
2021/04/26 05:00:22;;;;;;;8.45;2.72;;;3.50;91.70;;;;;;5134048;27;20036;-71
2021/04/26 05:02:48;;;;;;;9.10;2.67;;;3.70;91.40;;;;;;5134237;27;20080;-71
2021/04/26 05:05:14;;;;;;;4.35;1.95;;;3.80;91.10;;;;;;5133944;27;20039;-71
2021/04/26 05:07:39;;;;;;;6.22;2.83;;;4.00;90.90;;;;;;5133988;27;20043;-71
2021/04/26 05:10:06;;;;;;;5.90;2.92;;;4.20;90.90;;;;;;5133820;27;20037;-71
2021/04/26 05:12:32;;;;;;;8.00;3.45;;;4.50;90.80;;;;;;5133972;27;20035;-71
2021/04/26 05:14:58;;;;;;;6.43;3.10;;;4.70;90.70;;;;;;5134269;27;20035;-71
2021/04/26 05:17:26;;;;;;;8.82;3.67;;;4.80;90.50;;;;;;5133615;27;20092;-71
2021/04/26 05:19:52;;;;;;;6.93;3.53;;;5.10;90.30;;;;;;5134339;27;20073;-71
2021/04/26 05:22:18;;;;;;;9.63;3.83;;;5.30;90.10;;;;;;5133746;27;20559;-71
2021/04/26 05:24:45;;;;;;;7.68;3.08;;;5.70;89.90;;;;;;5133717;27;20069;-71
2021/04/26 05:27:10;;;;;;;5.40;2.83;;;5.90;89.40;;;;;;5133747;27;20066;-71
2021/04/26 05:29:36;;;;;;;7.85;2.65;;;6.00;89.10;;;;;;5133839;27;20080;-72
2021/04/26 05:32:02;;;;;;;5.32;2.30;;;6.30;88.50;;;;;;5134291;27;20042;-70
2021/04/26 05:34:28;;;;;;;5.35;2.28;;;6.60;88.30;;;;;;5136120;27;20031;-69
2021/04/26 05:36:55;;;;;;;6.13;2.47;;;6.90;87.50;;;;;;5136175;27;20483;-71
2021/04/26 05:39:21;;;;;;;7.80;2.08;;;6.80;86.70;;;;;;5137430;27;20042;-72
2021/04/26 05:41:46;;;;;;;7.25;2.15;;;6.80;87.40;;;;;;5136167;27;20562;-72
2021/04/26 05:44:12;;;;;;;5.57;2.03;;;7.10;87.10;;;;;;5137504;27;20067;-72
2021/04/26 05:46:38;;;;;;;4.28;2.13;;;7.30;86.50;;;;;;5136993;27;20148;-72
2021/04/26 05:49:04;;;;;;;7.20;2.35;;;7.60;86.30;;;;;;5137706;27;20084;-71
2021/04/26 05:51:30;;;;;;;5.07;2.00;;;7.60;85.10;;;;;;5137274;27;20495;-72
2021/04/26 05:53:56;;;;;;;5.97;2.08;;;7.60;84.70;;;;;;5137650;27;20043;-72
2021/04/26 05:56:22;;;;;;;5.22;2.17;;;8.00;84.30;;;;;;5136773;27;20043;-72
2021/04/26 05:58:49;;;;;;;6.60;2.10;;;8.40;83.30;;;;;;5137242;27;20039;-72
2021/04/26 06:01:15;;;;;;;9.20;2.20;;;8.50;82.40;;;;;;5137668;27;20087;-72
2021/04/26 06:03:41;;;;;;;7.00;2.13;;;8.30;81.40;;;;;;5137514;27;20035;-72
2021/04/26 06:06:06;;;;;;;7.30;2.30;;;9.00;81.20;;;;;;5136864;27;20039;-72
2021/04/26 06:08:32;;;;;;;7.68;2.10;;;9.20;79.90;;;;;;5136755;27;20578;-72
2021/04/26 06:10:58;;;;;;;7.03;2.40;;;9.30;80.00;;;;;;5137514;27;20047;-72
2021/04/26 06:13:24;;;;;;;4.85;2.20;;;9.20;79.60;;;;;;5136768;27;20039;-72
2021/04/26 06:15:50;;;;;;;5.65;2.00;;;9.10;78.70;;;;;;5136252;27;20113;-72
2021/04/26 06:18:20;;;;;;;4.97;1.95;;;9.10;78.80;;;;;;5137108;27;20047;-72
2021/04/26 06:20:48;;;;;;;5.47;2.05;;;9.40;78.50;;;;;;5137253;27;20042;-72
2021/04/26 06:23:15;;;;;;;7.13;1.92;;;9.80;78.40;;;;;;5137277;27;20035;-72
2021/04/26 06:25:40;;;;;;;6.25;2.50;;;10.10;76.80;;;;;;5136299;27;20114;-72
2021/04/26 06:28:07;;;;;;;8.90;2.70;;;10.50;76.20;;;;;;5136616;27;20118;-72
2021/04/26 06:30:35;;;;;;;4.40;1.85;;;9.60;75.60;;;;;;5136573;27;20039;-72
2021/04/26 06:33:01;;;;;;;7.53;2.15;;;9.70;75.70;;;;;;5135385;27;20114;-72
2021/04/26 06:35:27;;;;;;;7.88;2.47;;;10.10;75.70;;;;;;5136358;27;20089;-72
2021/04/26 06:37:54;;;;;;;6.13;1.85;;;9.90;75.10;;;;;;5136549;27;20039;-72
2021/04/26 06:40:19;;;;;;;7.32;1.73;;;9.90;75.30;;;;;;5136787;27;20123;-72
2021/04/26 06:42:45;;;;;;;6.72;1.75;;;10.40;74.10;;;;;;5136520;27;20110;-72
2021/04/26 06:45:12;;;;;;;8.23;1.88;;;10.20;74.10;;;;;;5135196;27;20414;-72
2021/04/26 06:47:38;;;;;;;5.07;1.80;;;10.00;73.70;;;;;;5136770;27;20031;-72
2021/04/26 06:50:05;;;;;;;5.97;1.63;;;10.30;73.70;;;;;;5136733;27;20041;-72
2021/04/26 06:52:31;;;;;;;7.97;1.70;;;10.60;73.40;;;;;;5136161;27;20039;-72
2021/04/26 06:54:57;;;;;;;7.22;1.65;;;10.80;73.90;;;;;;5135876;27;20038;-72
2021/04/26 06:57:23;;;;;;;4.80;1.60;;;10.50;71.60;;;;;;5135895;27;20041;-72
2021/04/26 06:59:48;;;;;;;5.07;1.58;;;10.80;71.80;;;;;;5135880;27;20039;-72
2021/04/26 07:02:14;;;;;;;6.07;1.45;;;11.00;71.30;;;;;;5136032;27;20039;-72
2021/04/26 07:04:40;;;;;;;4.03;1.15;;;11.10;70.50;;;;;;5135803;27;20046;-72
2021/04/26 07:07:06;;;;;;;2.83;0.90;;;11.00;69.40;;;;;;5135601;27;20467;-72
2021/04/26 07:09:31;;;;;;;6.43;1.55;;;10.50;68.90;;;;;;5135734;27;20108;-72
2021/04/26 07:11:57;;;;;;;3.83;1.10;;;10.40;70.40;;;;;;5135946;27;20184;-72
2021/04/26 07:14:24;;;;;;;4.65;1.17;;;10.50;70.60;;;;;;5135302;27;20031;-73
2021/04/26 07:16:50;;;;;;;6.18;1.30;;;10.80;69.70;;;;;;5135881;27;20073;-72
2021/04/26 07:19:16;;;;;;;3.47;1.10;;;11.40;70.00;;;;;;5136232;27;20115;-72
2021/04/26 07:21:41;;;;;;;7.18;1.20;;;10.90;67.80;;;;;;5134955;27;20054;-72
2021/04/26 07:24:08;;;;;;;4.45;1.48;;;10.80;68.10;;;;;;5134280;27;20517;-72
2021/04/26 07:26:33;;;;;;;2.70;1.23;;;11.30;67.80;;;;;;5134138;27;20070;-72
2021/04/26 07:28:59;;;;;;;6.50;1.15;;;10.60;68.20;;;;;;5135706;27;20035;-72
2021/04/26 07:31:25;;;;;;;2.70;1.05;;;10.80;68.30;;;;;;5135990;27;20493;-72
2021/04/26 07:33:50;;;;;;;5.15;1.20;;;11.10;68.40;;;;;;5135605;27;20483;-72
2021/04/26 07:36:16;;;;;;;5.10;1.02;;;10.70;66.00;;;;;;5133664;27;20037;-72
2021/04/26 07:38:43;;;;;;;2.67;1.20;;;11.20;64.60;;;;;;5135295;27;20047;-72
2021/04/26 07:41:09;;;;;;;5.72;1.60;;;11.40;64.60;;;;;;5135689;27;20054;-72
2021/04/26 07:43:34;;;;;;;4.30;1.42;;;12.10;64.10;;;;;;5135334;27;20046;-72
2021/04/26 07:46:00;;;;;;;7.32;1.33;;;11.40;62.90;;;;;;5134968;27;20035;-72
2021/04/26 07:48:26;;;;;;;5.18;1.23;;;11.50;63.00;;;;;;5135061;27;20387;-72
2021/04/26 07:50:51;;;;;;;4.45;1.20;;;12.00;62.80;;;;;;5135617;27;20059;-72
2021/04/26 07:53:17;;;;;;;3.17;0.98;;;11.80;60.40;;;;;;5135069;27;20174;-72
2021/04/26 07:55:43;;;;;;;4.72;1.33;;;12.40;60.00;;;;;;5134550;27;20031;-72
2021/04/26 07:58:08;;;;;;;3.38;1.30;;;12.40;58.40;;;;;;5135117;27;20042;-72
2021/04/26 08:00:36;;;;;;;2.63;0.90;;;12.00;58.90;;;;;;5134801;27;20102;-72
2021/04/26 08:03:03;;;;;;;2.33;0.88;;;12.50;59.80;;;;;;5134599;27;20122;-72
2021/04/26 08:05:30;;;;;;;3.38;1.00;;;12.80;57.40;;;;;;5134608;27;20031;-72
2021/04/26 08:07:56;;;;;;;6.00;1.15;;;11.90;55.10;;;;;;5133419;27;20040;-72
2021/04/26 08:10:22;;;;;;;3.40;1.08;;;12.00;55.30;;;;;;5133943;27;20043;-72
2021/04/26 08:12:48;;;;;;;2.28;0.85;;;12.50;54.50;;;;;;5135070;27;20051;-72
2021/04/26 08:15:15;;;;;;;4.75;1.20;;;12.40;53.40;;;;;;5134727;27;20475;-72
2021/04/26 08:17:40;;;;;;;2.50;0.80;;;12.80;55.20;;;;;;5135001;27;20130;-72
2021/04/26 08:20:07;;;;;;;2.35;1.35;;;13.20;52.40;;;;;;5135048;27;20639;-72
2021/04/26 08:22:33;;;;;;;1.13;0.85;;;12.80;51.80;;;;;;5134870;27;20039;-72
2021/04/26 08:24:59;;;;;;;3.28;1.15;;;13.20;51.50;;;;;;5134255;27;20134;-73
2021/04/26 08:27:25;;;;;;;4.78;2.03;;;13.40;49.40;;;;;;5133655;27;20042;-73
2021/04/26 08:29:51;;;;;;;2.55;0.77;;;13.70;49.20;;;;;;5134715;27;20035;-73
2021/04/26 08:32:17;;;;;;;3.28;0.88;;;13.30;47.70;;;;;;5135029;27;20043;-73
2021/04/26 08:34:42;;;;;;;1.95;0.88;;;13.10;48.50;;;;;;5134119;27;20482;-73
2021/04/26 08:37:08;;;;;;;4.85;0.90;;;12.80;47.50;;;;;;5134733;27;20058;-73
2021/04/26 08:39:34;;;;;;;1.48;0.50;;;12.20;46.30;;;;;;5134526;27;20047;-73
2021/04/26 08:42:00;;;;;;;3.63;0.90;;;11.80;47.40;;;;;;5134810;27;20031;-72
2021/04/26 08:44:26;;;;;;;2.33;0.75;;;12.10;47.40;;;;;;5134410;27;20035;-73
2021/04/26 08:46:51;;;;;;;1.77;0.77;;;12.50;46.90;;;;;;5134095;27;20035;-73
2021/04/26 08:49:19;;;;;;;2.47;0.50;;;12.50;45.30;;;;;;5134048;27;20043;-73
2021/04/26 08:51:46;;;;;;;3.10;0.85;;;13.10;46.20;;;;;;5134902;27;20500;-72
2021/04/26 08:54:17;;;;;;;1.65;0.88;;;13.30;46.30;;;;;;5134344;27;20383;-72
2021/04/26 08:56:43;;;;;;;2.13;0.70;;;13.50;46.60;;;;;;5133248;27;20043;-72
2021/04/26 08:59:10;;;;;;;2.05;0.90;;;13.10;45.30;;;;;;5134754;27;20479;-72
2021/04/26 09:01:35;;;;;;;2.60;0.80;;;13.00;45.90;;;;;;5133731;27;20430;-72
2021/04/26 09:04:06;;;;;;;3.15;0.90;;;12.80;45.80;;;;;;5133987;27;20027;-73
2021/04/26 09:06:58;;;;;;;2.72;0.70;;;13.40;45.40;;;;;;5133620;27;20038;-72
2021/04/26 09:09:43;;;;;;;6.20;0.90;;;13.30;44.40;;;;;;5135316;27;20444;-72
2021/04/26 09:12:14;;;;;;;4.88;1.10;;;12.70;45.60;;;;;;5138716;27;20372;-72
2021/04/26 09:14:42;;;;;;;2.55;0.80;;;13.00;46.80;;;;;;5137937;27;20084;-74
2021/04/26 09:17:27;;;;;;;2.45;1.20;;;13.30;47.70;;;;;;5138186;27;20070;-74
2021/04/26 09:19:54;;;;;;;1.60;0.57;;;13.20;44.10;;;;;;5138493;27;20114;-72
2021/04/26 09:22:45;;;;;;;3.75;1.00;;;13.20;45.10;;;;;;5138518;27;20043;-71
2021/04/26 09:25:22;;;;;;;1.92;0.90;;;12.60;43.60;;;;;;5137566;27;20076;-71
2021/04/26 09:28:03;;;;;;;3.28;0.80;;;12.30;45.20;;;;;;5137646;27;20479;-71
2021/04/26 09:30:43;;;;;;;2.28;0.57;;;13.10;47.00;;;;;;5138233;27;20109;-72
2021/04/26 09:33:29;;;;;;;3.95;1.02;;;13.30;47.20;;;;;;5138147;27;20067;-72
2021/04/26 09:36:20;;;;;;;1.90;1.00;;;13.40;46.40;;;;;;5137523;27;20067;-72
2021/04/26 09:38:52;;;;;;;3.30;0.90;;;13.20;45.50;;;;;;5137588;27;20039;-72
2021/04/26 09:41:32;;;;;;;2.35;0.93;;;13.40;45.10;;;;;;5137625;27;20049;-72
2021/04/26 09:44:01;;;;;;;3.67;0.88;;;13.00;44.10;;;;;;5138126;27;20518;-72
2021/04/26 09:46:48;;;;;;;3.10;1.02;;;12.90;43.70;;;;;;5136275;27;20035;-72
2021/04/26 09:49:15;;;;;;;3.78;1.13;;;12.40;44.40;;;;;;5137309;27;20492;-72
2021/04/26 09:51:44;;;;;;;3.97;0.90;;;12.70;45.70;;;;;;5138061;27;20046;-72
2021/04/26 09:54:13;;;;;;;4.10;1.00;;;12.30;45.30;;;;;;5137309;27;20039;-71
2021/04/26 09:56:43;;;;;;;2.75;0.90;;;12.30;45.70;;;;;;5137156;27;20099;-71
2021/04/26 09:59:10;;;;;;;1.40;0.80;;;12.60;47.20;;;;;;5136136;27;20416;-69
2021/04/26 10:01:37;;;;;;;3.78;1.15;;;12.60;44.00;;;;;;5136447;27;20035;-70
2021/04/26 10:04:03;;;;;;;2.17;0.95;;;12.60;42.90;;;;;;5137623;27;20035;-71
2021/04/26 10:06:30;;;;;;;2.90;1.00;;;12.50;44.30;;;;;;5136856;27;20113;-72
2021/04/26 10:08:59;;;;;;;3.42;1.73;;;12.60;47.00;;;;;;5135823;27;20067;-71
2021/04/26 10:11:27;;;;;;;3.53;1.30;;;12.20;46.20;;;;;;5136984;27;20471;-72
2021/04/26 10:14:05;;;;;;;1.88;0.80;;;12.30;46.70;;;;;;5137524;27;20031;-71
2021/04/26 10:16:40;;;;;;;3.67;1.13;;;12.30;46.80;;;;;;5136361;27;20039;-72
2021/04/26 10:19:07;;;;;;;4.20;1.20;;;11.70;46.30;;;;;;5136729;27;20041;-72
2021/04/26 10:21:34;;;;;;;2.83;0.93;;;11.90;48.30;;;;;;5126798;27;20059;-72
2021/04/26 10:24:13;;;;;;;3.42;1.10;;;11.80;49.00;;;;;;5130996;27;20109;-72
2021/04/26 10:26:42;;;;;;;3.38;1.10;;;12.10;49.80;;;;;;5136294;27;20110;-72
2021/04/26 10:29:14;;;;;;;4.35;1.25;;;11.70;49.20;;;;;;5136985;27;20425;-72
2021/04/26 10:32:01;;;;;;;4.18;1.00;;;11.40;48.70;;;;;;5129508;27;20043;-72
2021/04/26 10:34:56;;;;;;;8.02;1.27;;;11.60;50.30;;;;;;5135371;27;20046;-74
2021/04/26 10:37:28;;;;;;;3.60;0.98;;;11.50;50.10;;;;;;5134483;27;20546;-74
2021/04/26 10:39:59;;;;;;;2.60;1.15;;;12.30;50.30;;;;;;5135243;27;20043;-74
2021/04/26 10:42:47;;;;;;;9.45;1.67;;;12.50;49.70;;;;;;5135569;27;20478;-74
2021/04/26 10:45:13;;;;;;;3.28;1.20;;;12.10;50.10;;;;;;5135269;27;20454;-74
2021/04/26 10:47:41;;;;;;;1.77;1.17;;;12.50;49.40;;;;;;5135580;27;20118;-74
2021/04/26 10:50:06;;;;;;;1.98;0.75;;;12.70;49.60;;;;;;5135749;27;20053;-74
2021/04/26 10:52:33;;;;;;;3.33;1.27;;;12.70;50.80;;;;;;5135260;27;20473;-74
2021/04/26 10:55:02;;;;;;;4.68;1.15;;;12.30;49.30;;;;;;5135803;27;20035;-73
2021/04/26 10:57:39;;;;;;;2.78;1.15;;;12.00;47.90;;;;;;5136580;27;20035;-74
2021/04/26 11:00:23;;;;;;;3.17;1.13;;;12.20;49.10;;;;;;5135175;27;20039;-74
2021/04/26 11:02:51;;;;;;;8.60;1.67;;;12.30;50.30;;;;;;5136562;27;20532;-74
2021/04/26 11:05:22;;;;;;;2.13;1.00;;;12.20;48.90;;;;;;5135467;27;20520;-75
2021/04/26 11:07:52;;;;;;;5.35;1.42;;;12.10;50.40;;;;;;5133839;27;20042;-75
2021/04/26 11:10:40;;;;;;;3.50;1.50;;;11.60;49.30;;;;;;5135793;27;20046;-74
2021/04/26 11:13:30;;;;;;;4.22;1.23;;;12.00;51.30;;;;;;5134811;27;20058;-75
2021/04/26 11:16:13;;;;;;;4.32;1.33;;;12.30;50.00;;;;;;5135184;27;20039;-75
2021/04/26 11:18:44;;;;;;;5.50;1.38;;;12.20;49.60;;;;;;5134612;27;20031;-74
2021/04/26 11:21:11;;;;;;;3.13;1.40;;;12.20;49.40;;;;;;5134336;27;20039;-74
2021/04/26 11:23:42;;;;;;;5.07;1.40;;;11.90;50.10;;;;;;5133944;27;20046;-75
2021/04/26 11:26:15;;;;;;;2.90;1.35;;;12.00;48.70;;;;;;5134902;27;20107;-74
2021/04/26 11:29:09;;;;;;;5.75;1.98;;;12.20;48.30;;;;;;5134367;27;20032;-74
2021/04/26 11:31:41;;;;;;;5.60;1.60;;;12.00;49.00;;;;;;5134615;27;20031;-74
2021/04/26 11:34:10;;;;;;;2.63;1.40;;;11.60;49.50;;;;;;5135164;27;20035;-74
2021/04/26 11:36:38;;;;;;;2.75;1.25;;;11.70;50.50;;;;;;5134751;27;20031;-75
2021/04/26 11:39:08;;;;;;;5.72;2.20;;;11.80;48.70;;;;;;5134855;27;20098;-74
2021/04/26 11:41:42;;;;;;;3.78;1.52;;;12.00;49.10;;;;;;5135260;27;20534;-74
2021/04/26 11:44:08;;;;;;;5.72;1.80;;;11.80;49.30;;;;;;5134504;27;20036;-75
2021/04/26 11:46:34;;;;;;;4.20;1.40;;;11.60;49.70;;;;;;5133654;27;20042;-74
2021/04/26 11:49:13;;;;;;;4.03;1.50;;;11.80;49.70;;;;;;5135278;27;20031;-74
2021/04/26 11:51:39;;;;;;;6.47;1.98;;;11.30;49.60;;;;;;5134846;27;20478;-74
2021/04/26 11:54:09;;;;;;;6.45;2.10;;;11.70;52.00;;;;;;5135544;27;20031;-74
2021/04/26 11:56:35;;;;;;;6.65;2.13;;;11.60;50.70;;;;;;5133910;27;20037;-75
2021/04/26 11:59:06;;;;;;;4.53;1.52;;;11.50;50.10;;;;;;5134700;27;20039;-74
2021/04/26 12:01:32;;;;;;;5.95;1.80;;;11.50;49.20;;;;;;5134092;27;20064;-75
2021/04/26 12:03:59;;;;;;;5.13;2.28;;;11.50;49.40;;;;;;5133166;27;20043;-74
2021/04/26 12:06:26;;;;;;;3.92;1.40;;;11.70;48.50;;;;;;5134084;27;20035;-74
2021/04/26 12:08:52;;;;;;;3.72;1.75;;;11.80;49.10;;;;;;5134204;27;20398;-75
2021/04/26 12:11:21;;;;;;;5.97;2.03;;;11.90;49.50;;;;;;5134230;27;20039;-74
2021/04/26 12:14:09;;;;;;;3.60;1.60;;;12.00;49.50;;;;;;5134913;27;20084;-74
2021/04/26 12:16:34;;;;;;;7.90;2.50;;;11.90;47.40;;;;;;5134328;27;20066;-74
2021/04/26 12:19:02;;;;;;;4.80;1.58;;;11.80;48.30;;;;;;5132984;27;20077;-75
2021/04/26 12:21:28;;;;;;;3.78;1.63;;;11.90;48.00;;;;;;5133827;27;20092;-74
2021/04/26 12:23:55;;;;;;;3.78;1.50;;;11.40;51.60;;;;;;5134694;27;20170;-74
2021/04/26 12:26:20;;;;;;;4.30;1.60;;;11.30;53.50;;;;;;5133996;27;20065;-74
2021/04/26 12:28:48;;;;;;;3.75;1.88;;;11.40;53.80;;;;;;5134207;27;20067;-74
2021/04/26 12:31:23;;;;;;;5.13;1.75;;;11.30;53.70;;;;;;5133998;27;20071;-74
2021/04/26 12:33:50;;;;;;;5.53;1.58;;;11.40;55.50;;;;;;5134164;27;20035;-74
2021/04/26 12:36:16;;;;;;;4.25;1.55;;;11.40;54.70;;;;;;5132579;27;20039;-74
2021/04/26 12:38:48;;;;;;;5.75;1.27;;;11.50;55.10;;;;;;5134646;27;20103;-74
2021/04/26 12:41:15;;;;;;;4.50;1.13;;;11.30;55.20;;;;;;5134084;27;20486;-74
2021/04/26 12:43:44;;;;;;;6.35;1.52;;;11.50;55.10;;;;;;5132141;27;20114;-74
2021/04/26 12:46:13;;;;;;;5.13;1.20;;;11.40;55.10;;;;;;5133208;28;20098;-74
2021/04/26 12:48:41;;;;;;;3.47;1.42;;;11.70;55.30;;;;;;5134884;27;20417;-74
2021/04/26 12:51:07;;;;;;;6.63;2.33;;;11.70;54.90;;;;;;5134254;27;20035;-74
2021/04/26 12:53:35;;;;;;;4.57;1.17;;;11.40;54.10;;;;;;5134239;27;20039;-74
2021/04/26 12:56:04;;;;;;;6.97;1.65;;;11.40;54.40;;;;;;5133957;27;20061;-74
2021/04/26 12:58:32;;;;;;;3.85;1.42;;;11.20;54.10;;;;;;5133141;28;20035;-75
2021/04/26 13:01:03;;;;;;;2.25;1.27;;;11.30;54.10;;;;;;5134178;27;20039;-74